createdAt,value
2022-12-15T00:02:19.020Z,15.27
2022-12-15T00:05:05.067Z,16.02
2022-12-15T00:07:50.744Z,15.82
2022-12-15T00:10:36.428Z,14.27
2022-12-15T00:13:22.035Z,15.30
2022-12-15T00:16:08.728Z,18.75
2022-12-15T00:18:54.251Z,15.57
2022-12-15T00:21:39.600Z,14.65
2022-12-15T00:24:25.468Z,14.75
2022-12-15T00:27:11.298Z,14.20
2022-12-15T00:29:56.955Z,13.52
2022-12-15T00:32:43.840Z,13.32
2022-12-15T00:35:29.447Z,13.85
2022-12-15T00:38:14.680Z,14.48
2022-12-15T00:40:42.829Z,14.43
2022-12-15T00:43:12.122Z,13.23
2022-12-15T00:45:58.468Z,13.52
2022-12-15T00:48:28.010Z,13.15
2022-12-15T00:50:55.133Z,14.60
2022-12-15T00:53:42.079Z,13.50
2022-12-15T00:56:28.157Z,12.82
2022-12-15T00:59:14.136Z,13.73
2022-12-15T01:02:00.250Z,12.75
2022-12-15T01:04:47.838Z,13.77
2022-12-15T01:07:33.720Z,13.80
2022-12-15T01:10:20.911Z,14.63
2022-12-15T01:13:06.630Z,13.35
2022-12-15T01:15:55.132Z,14.13
2022-12-15T01:18:40.622Z,13.68
2022-12-15T01:21:11.656Z,14.60
2022-12-15T01:23:40.568Z,14.07
2022-12-15T01:26:08.826Z,13.30
2022-12-15T01:28:37.022Z,13.98
2022-12-15T01:31:12.736Z,13.07
2022-12-15T01:33:42.675Z,12.57
2022-12-15T01:36:12.847Z,15.63
2022-12-15T01:38:40.989Z,12.75
2022-12-15T01:41:11.092Z,13.68
2022-12-15T01:43:41.530Z,13.35
2022-12-15T01:46:11.299Z,12.98
2022-12-15T01:48:45.432Z,12.77
2022-12-15T01:51:26.372Z,12.75
2022-12-15T01:54:00.983Z,13.60
2022-12-15T01:56:36.848Z,13.68
2022-12-15T01:59:08.721Z,12.65
2022-12-15T02:01:37.122Z,13.35
2022-12-15T02:04:05.574Z,12.95
2022-12-15T02:06:35.966Z,13.57
2022-12-15T02:09:04.551Z,12.38
2022-12-15T02:12:07.712Z,13.35
2022-12-15T02:14:55.130Z,13.48
2022-12-15T02:17:34.173Z,12.80
2022-12-15T02:20:39.976Z,13.30
2022-12-15T02:23:48.189Z,12.73
2022-12-15T02:26:39.551Z,13.00
2022-12-15T02:29:23.648Z,13.13
2022-12-15T02:31:59.897Z,12.30
2022-12-15T02:34:35.363Z,13.90
2022-12-15T02:37:08.159Z,13.60
2022-12-15T02:39:36.491Z,12.57
2022-12-15T02:42:04.829Z,12.15
2022-12-15T02:44:38.856Z,13.93
2022-12-15T02:47:22.942Z,12.73
2022-12-15T02:50:12.543Z,12.35
2022-12-15T02:52:54.001Z,12.60
2022-12-15T02:55:34.030Z,13.38
2022-12-15T02:58:07.995Z,12.50
2022-12-15T03:00:44.063Z,12.45
2022-12-15T03:03:15.488Z,11.82
2022-12-15T03:05:44.414Z,12.05
2022-12-15T03:08:12.546Z,13.20
2022-12-15T03:10:40.878Z,13.45
2022-12-15T03:13:09.039Z,12.30
2022-12-15T03:15:37.166Z,12.95
2022-12-15T03:18:05.461Z,13.23
2022-12-15T03:20:34.989Z,14.02
2022-12-15T03:23:03.155Z,13.07
2022-12-15T03:25:31.423Z,13.63
2022-12-15T03:27:59.645Z,14.15
2022-12-15T03:30:28.026Z,14.50
2022-12-15T03:32:56.149Z,13.18
2022-12-15T03:35:24.307Z,14.75
2022-12-15T03:37:53.839Z,13.40
2022-12-15T03:40:21.988Z,13.48
2022-12-15T03:42:50.108Z,13.65
2022-12-15T03:45:19.219Z,12.75
2022-12-15T03:47:48.735Z,12.38
2022-12-15T03:50:19.322Z,13.30
2022-12-15T03:52:51.479Z,12.05
2022-12-15T03:55:21.660Z,12.65
2022-12-15T03:57:50.458Z,13.38
2022-12-15T04:00:20.005Z,13.55
2022-12-15T04:02:50.429Z,12.57
2022-12-15T04:05:21.501Z,12.57
2022-12-15T04:07:49.797Z,11.80
2022-12-15T04:10:18.118Z,14.15
2022-12-15T04:12:47.665Z,14.20
2022-12-15T04:15:16.247Z,13.40
2022-12-15T04:17:44.564Z,13.73
2022-12-15T04:20:13.203Z,20.90
2022-12-15T04:22:43.421Z,16.45
2022-12-15T04:25:31.961Z,14.45
2022-12-15T04:28:19.373Z,13.57
2022-12-15T04:31:08.412Z,13.80
2022-12-15T04:33:54.872Z,14.88
2022-12-15T04:36:41.374Z,14.75
2022-12-15T04:39:27.000Z,13.63
2022-12-15T04:42:16.188Z,13.65
2022-12-15T04:45:03.475Z,14.25
2022-12-15T04:47:49.191Z,14.18
2022-12-15T04:50:34.824Z,15.07
2022-12-15T04:53:26.909Z,13.80
2022-12-15T04:56:17.938Z,14.90
2022-12-15T04:59:04.653Z,11.50
2022-12-15T05:01:52.025Z,13.02
2022-12-15T05:04:38.160Z,16.33
2022-12-15T05:07:23.761Z,13.38
2022-12-15T05:10:14.661Z,13.88
2022-12-15T05:13:00.508Z,15.45
2022-12-15T05:15:46.301Z,14.05
2022-12-15T05:18:33.500Z,15.00
2022-12-15T05:21:19.067Z,14.57
2022-12-15T05:24:04.452Z,15.48
2022-12-15T05:26:52.865Z,16.13
2022-12-15T05:29:39.196Z,14.43
2022-12-15T05:32:08.182Z,14.38
2022-12-15T05:34:38.445Z,15.30
2022-12-15T05:37:07.732Z,15.27
2022-12-15T05:39:36.812Z,13.70
2022-12-15T05:42:05.252Z,13.52
2022-12-15T05:44:33.663Z,14.77
2022-12-15T05:47:01.791Z,14.32
2022-12-15T05:49:30.090Z,13.90
2022-12-15T05:51:59.642Z,17.00
2022-12-15T05:54:28.050Z,16.40
2022-12-15T05:56:56.235Z,17.42
2022-12-15T05:59:24.417Z,14.77
2022-12-15T06:01:52.732Z,14.80
2022-12-15T06:04:21.055Z,15.15
2022-12-15T06:06:49.345Z,37.05
2022-12-15T06:09:18.956Z,19.80
2022-12-15T06:11:47.242Z,15.68
2022-12-15T06:14:15.621Z,15.98
2022-12-15T06:16:50.675Z,16.95
2022-12-15T06:19:20.061Z,16.05
2022-12-15T06:21:51.010Z,16.52
2022-12-15T06:24:20.731Z,15.73
2022-12-15T06:26:49.719Z,15.63
2022-12-15T06:29:18.671Z,15.35
2022-12-15T06:31:46.968Z,16.38
2022-12-15T06:34:17.231Z,16.63
2022-12-15T06:36:45.557Z,16.15
2022-12-15T06:39:16.472Z,16.10
2022-12-15T06:41:46.040Z,16.42
2022-12-15T06:44:15.972Z,16.30
2022-12-15T06:46:46.080Z,18.05
2022-12-15T06:49:14.665Z,18.17
2022-12-15T06:51:44.079Z,40.13
2022-12-15T06:54:12.533Z,17.27
2022-12-15T06:56:40.743Z,15.50
2022-12-15T06:59:12.199Z,15.30
2022-12-15T07:01:41.743Z,14.65
2022-12-15T07:04:11.323Z,15.20
2022-12-15T07:06:40.504Z,15.98
2022-12-15T07:09:12.224Z,15.77
2022-12-15T07:11:40.540Z,16.38
2022-12-15T07:14:11.267Z,19.80
2022-12-15T07:16:39.547Z,18.55
2022-12-15T07:19:07.759Z,16.92
2022-12-15T07:21:35.901Z,16.85
2022-12-15T07:24:04.570Z,16.35
2022-12-15T07:26:32.915Z,17.73
2022-12-15T07:29:01.055Z,17.50
2022-12-15T07:31:32.333Z,16.63
2022-12-15T07:34:00.848Z,20.30
2022-12-15T07:36:29.006Z,28.05
2022-12-15T07:39:01.343Z,20.65
2022-12-15T07:41:30.330Z,19.38
2022-12-15T07:43:59.120Z,17.90
2022-12-15T07:46:29.026Z,18.05
2022-12-15T07:48:58.847Z,17.77
2022-12-15T07:51:27.779Z,18.10
2022-12-15T07:53:55.966Z,18.50
2022-12-15T07:56:24.658Z,17.58
2022-12-15T07:58:53.181Z,17.58
2022-12-15T08:01:21.550Z,18.35
2022-12-15T08:03:50.368Z,17.88
2022-12-15T08:06:19.978Z,16.67
2022-12-15T08:08:50.054Z,16.65
2022-12-15T08:11:19.689Z,16.98
2022-12-15T08:14:04.937Z,15.73
2022-12-15T08:16:36.730Z,15.35
2022-12-15T08:19:06.399Z,15.70
2022-12-15T08:21:36.030Z,15.75
2022-12-15T08:24:04.387Z,15.65
2022-12-15T08:26:32.760Z,15.43
2022-12-15T08:29:48.847Z,15.95
2022-12-15T08:31:54.051Z,15.40
2022-12-15T08:34:22.398Z,17.17
2022-12-15T08:36:51.991Z,17.50
2022-12-15T08:39:20.517Z,17.77
2022-12-15T08:41:48.729Z,17.38
2022-12-15T08:44:17.412Z,17.08
2022-12-15T08:46:45.767Z,17.27
2022-12-15T08:49:19.539Z,16.42
2022-12-15T08:51:51.787Z,15.00
2022-12-15T08:54:21.362Z,15.93
2022-12-15T08:56:50.395Z,15.75
2022-12-15T08:59:19.256Z,15.52
2022-12-15T09:01:47.861Z,16.38
2022-12-15T09:04:16.701Z,17.58
2022-12-15T09:06:46.770Z,16.10
2022-12-15T09:09:20.723Z,16.02
2022-12-15T09:11:49.665Z,16.35
2022-12-15T09:14:19.634Z,17.05
2022-12-15T09:16:50.394Z,16.48
2022-12-15T09:19:19.186Z,13.25
2022-12-15T09:21:48.202Z,13.05
2022-12-15T09:24:25.861Z,12.98
2022-12-15T09:26:56.791Z,13.05
2022-12-15T09:29:24.957Z,13.70
2022-12-15T09:31:53.149Z,13.73
2022-12-15T09:34:21.328Z,13.32
2022-12-15T09:36:49.692Z,14.00
2022-12-15T09:39:18.523Z,15.50
2022-12-15T09:41:54.154Z,14.27
2022-12-15T09:44:26.128Z,14.75
2022-12-15T09:47:06.222Z,17.17
2022-12-15T09:49:54.377Z,14.32
2022-12-15T09:52:27.000Z,12.75
2022-12-15T09:54:55.938Z,12.23
2022-12-15T09:57:36.442Z,13.38
2022-12-15T10:00:21.137Z,14.00
2022-12-15T10:03:39.129Z,11.40
2022-12-15T10:06:16.481Z,13.73
2022-12-15T10:09:10.468Z,12.85
2022-12-15T10:11:50.667Z,12.30
2022-12-15T10:14:28.353Z,11.90
2022-12-15T10:17:03.997Z,10.88
2022-12-15T10:19:38.844Z,12.32
2022-12-15T10:22:07.248Z,12.73
2022-12-15T10:25:08.453Z,11.73
2022-12-15T10:27:43.699Z,12.57
2022-12-15T10:30:14.808Z,13.05
2022-12-15T10:32:51.450Z,12.27
2022-12-15T10:35:23.436Z,13.57
2022-12-15T10:37:51.624Z,12.55
2022-12-15T10:40:21.499Z,12.55
2022-12-15T10:42:51.067Z,12.32
2022-12-15T10:45:36.428Z,13.45
2022-12-15T10:48:07.151Z,11.90
2022-12-15T10:50:36.925Z,13.68
2022-12-15T10:53:10.559Z,12.65
2022-12-15T10:55:40.978Z,12.35
2022-12-15T10:58:18.611Z,12.50
2022-12-15T11:00:50.767Z,11.68
2022-12-15T11:03:26.129Z,12.18
2022-12-15T11:05:55.549Z,12.93
2022-12-15T11:08:24.800Z,10.82
2022-12-15T11:11:12.791Z,12.57
2022-12-15T11:13:41.873Z,13.50
2022-12-15T11:16:17.455Z,12.68
2022-12-15T11:18:52.554Z,13.35
2022-12-15T11:21:25.018Z,13.48
2022-12-15T11:24:00.668Z,14.07
2022-12-15T11:26:44.308Z,13.82
2022-12-15T11:29:24.386Z,13.23
2022-12-15T11:31:54.185Z,13.95
2022-12-15T11:34:26.870Z,13.73
2022-12-15T11:37:21.400Z,14.15
2022-12-15T11:40:01.972Z,14.27
2022-12-15T11:42:43.461Z,12.90
2022-12-15T11:45:22.091Z,14.52
2022-12-15T11:47:53.502Z,14.52
2022-12-15T11:50:31.396Z,14.02
2022-12-15T11:53:15.934Z,13.80
2022-12-15T11:55:53.121Z,13.82
2022-12-15T11:58:50.148Z,13.05
2022-12-15T12:01:39.414Z,12.73
2022-12-15T12:04:21.560Z,12.68
2022-12-15T12:09:32.933Z,12.05
2022-12-15T12:12:13.316Z,16.45
2022-12-15T12:14:51.212Z,12.68
2022-12-15T12:17:28.284Z,13.85
2022-12-15T12:20:00.598Z,13.25
2022-12-15T12:22:35.948Z,12.73
2022-12-15T12:25:06.303Z,12.68
2022-12-15T12:27:40.650Z,11.75
2022-12-15T12:30:15.153Z,11.98
2022-12-15T12:32:50.862Z,11.68
2022-12-15T12:35:30.847Z,11.02
2022-12-15T12:38:04.261Z,13.25
2022-12-15T12:41:02.614Z,11.88
2022-12-15T12:43:35.531Z,12.82
2022-12-15T12:46:10.287Z,12.05
2022-12-15T12:48:42.752Z,12.77
2022-12-15T12:51:20.452Z,12.90
2022-12-15T12:53:50.283Z,12.13
2022-12-15T12:56:34.534Z,16.60
2022-12-15T12:59:08.639Z,12.82
2022-12-15T13:01:38.644Z,13.73
2022-12-15T13:04:09.964Z,14.38
2022-12-15T13:07:02.162Z,14.00
2022-12-15T13:12:50.961Z,13.38
2022-12-15T13:15:37.337Z,12.20
2022-12-15T13:18:12.679Z,11.90
2022-12-15T13:20:41.906Z,12.02
2022-12-15T13:23:43.998Z,12.55
2022-12-15T13:26:19.353Z,11.52
2022-12-15T13:28:52.603Z,11.75
2022-12-15T13:31:45.277Z,12.00
2022-12-15T13:34:23.085Z,12.68
2022-12-15T13:36:55.384Z,12.23
2022-12-15T13:39:55.293Z,12.68
2022-12-15T13:42:48.222Z,17.73
2022-12-15T13:45:51.963Z,14.82
2022-12-15T13:48:35.215Z,12.07
2022-12-15T13:51:10.546Z,18.30
2022-12-15T13:53:43.617Z,13.15
2022-12-15T13:56:29.642Z,13.32
2022-12-15T13:59:06.171Z,17.33
2022-12-15T14:01:34.678Z,20.58
2022-12-15T14:04:12.640Z,20.15
2022-12-15T14:06:50.887Z,16.38
2022-12-15T14:09:24.245Z,16.77
2022-12-15T14:11:54.142Z,14.75
2022-12-15T14:14:27.741Z,14.43
2022-12-15T14:17:02.009Z,14.73
2022-12-15T14:19:40.148Z,15.63
2022-12-15T14:22:28.241Z,15.10
2022-12-15T14:25:03.994Z,15.30
2022-12-15T14:27:34.900Z,13.90
2022-12-15T14:30:24.294Z,13.27
2022-12-15T14:32:57.687Z,13.75
2022-12-15T14:35:30.263Z,12.90
2022-12-15T14:38:01.769Z,14.27
2022-12-15T14:40:30.876Z,14.85
2022-12-15T14:42:59.185Z,14.20
2022-12-15T14:45:32.244Z,13.93
2022-12-15T14:48:39.550Z,14.73
2022-12-15T14:50:51.994Z,14.60
2022-12-15T14:53:22.293Z,14.63
2022-12-15T14:58:41.863Z,12.73
2022-12-15T15:01:26.004Z,14.60
2022-12-15T15:03:15.496Z,14.02
2022-12-15T15:04:04.264Z,15.43
2022-12-15T15:06:38.483Z,13.30
2022-12-15T15:09:24.236Z,15.25
2022-12-15T15:11:55.654Z,13.57
2022-12-15T15:14:27.769Z,14.95
2022-12-15T15:17:07.212Z,14.00
2022-12-15T15:19:40.165Z,16.25
2022-12-15T15:22:32.155Z,15.65
2022-12-15T15:25:00.592Z,15.20
2022-12-15T15:27:36.461Z,15.02
2022-12-15T15:30:21.000Z,14.27
2022-12-15T15:32:56.459Z,14.70
2022-12-15T15:35:26.389Z,14.65
2022-12-15T15:38:01.167Z,14.05
2022-12-15T15:40:29.348Z,14.10
2022-12-15T15:42:57.694Z,17.20
2022-12-15T15:45:26.044Z,17.08
2022-12-15T15:47:56.106Z,16.88
2022-12-15T15:50:29.814Z,17.25
2022-12-15T15:52:58.623Z,15.00
2022-12-15T15:55:36.221Z,20.63
2022-12-15T15:58:12.332Z,18.55
2022-12-15T16:00:41.025Z,17.42
2022-12-15T16:03:10.857Z,18.15
2022-12-15T16:05:39.752Z,17.20
2022-12-15T16:08:08.574Z,20.35
2022-12-15T16:10:36.776Z,17.70
2022-12-15T16:13:04.925Z,17.88
2022-12-15T16:15:33.369Z,29.42
2022-12-15T16:18:01.578Z,19.80
2022-12-15T16:20:31.519Z,18.48
2022-12-15T16:23:02.766Z,19.63
2022-12-15T16:25:41.437Z,19.15
2022-12-15T16:28:14.711Z,22.48
2022-12-15T16:30:44.259Z,23.80
2022-12-15T16:33:13.052Z,20.08
2022-12-15T16:35:43.811Z,17.13
2022-12-15T16:38:18.025Z,15.77
2022-12-15T16:40:46.433Z,15.07
2022-12-15T16:43:17.378Z,15.25
2022-12-15T16:45:47.439Z,12.10
2022-12-15T16:48:16.729Z,17.92
2022-12-15T16:50:50.666Z,17.13
2022-12-15T16:53:22.860Z,16.10
2022-12-15T16:55:55.047Z,16.98
2022-12-15T16:58:25.157Z,19.20
2022-12-15T17:00:54.894Z,19.02
2022-12-15T17:03:25.819Z,21.17
2022-12-15T17:05:57.684Z,24.13
2022-12-15T17:08:29.040Z,22.90
2022-12-15T17:10:57.582Z,20.67
2022-12-15T17:13:36.570Z,17.38
2022-12-15T17:16:08.461Z,16.20
2022-12-15T17:18:36.644Z,18.65
2022-12-15T17:21:11.620Z,17.98
2022-12-15T17:23:41.380Z,15.73
2022-12-15T17:26:29.946Z,17.70
2022-12-15T17:29:02.368Z,16.95
2022-12-15T17:31:35.647Z,18.98
2022-12-15T17:34:22.920Z,17.15
2022-12-15T17:36:52.700Z,19.85
2022-12-15T17:39:22.512Z,21.10
2022-12-15T17:41:59.882Z,21.15
2022-12-15T17:44:36.254Z,24.63
2022-12-15T17:47:06.533Z,26.02
2022-12-15T17:49:37.811Z,26.73
2022-12-15T17:54:46.135Z,36.90
2022-12-15T17:57:14.276Z,55.47
2022-12-15T17:59:42.743Z,45.38
2022-12-15T18:02:14.246Z,47.30
2022-12-15T18:04:43.098Z,34.65
2022-12-15T18:07:16.717Z,33.47
2022-12-15T18:09:45.048Z,55.33
2022-12-15T18:12:19.764Z,28.63
2022-12-15T18:14:54.557Z,23.50
2022-12-15T18:17:23.300Z,29.60
2022-12-15T18:19:51.465Z,32.65
2022-12-15T18:22:23.513Z,26.02
2022-12-15T18:24:54.024Z,22.20
2022-12-15T18:27:25.075Z,21.50
2022-12-15T18:29:53.804Z,25.17
2022-12-15T18:32:23.739Z,23.27
2022-12-15T18:34:52.353Z,27.15
2022-12-15T18:37:24.692Z,18.50
2022-12-15T18:39:53.141Z,18.17
2022-12-15T18:42:22.999Z,15.00
2022-12-15T18:44:53.405Z,17.23
2022-12-15T18:47:24.896Z,15.35
2022-12-15T18:49:53.511Z,16.20
2022-12-15T18:52:27.544Z,14.68
2022-12-15T18:54:57.063Z,16.50
2022-12-15T18:57:31.176Z,16.55
2022-12-15T19:00:00.894Z,16.00
2022-12-15T19:02:29.326Z,15.68
2022-12-15T19:04:57.590Z,17.52
2022-12-15T19:07:27.660Z,24.85
2022-12-15T19:09:56.018Z,19.50
2022-12-15T19:12:24.336Z,22.58
2022-12-15T19:14:55.301Z,18.30
2022-12-15T19:17:42.601Z,16.63
2022-12-15T19:20:34.997Z,19.25
2022-12-15T19:23:05.226Z,25.85
2022-12-15T19:25:34.132Z,29.70
2022-12-15T19:28:02.943Z,17.83
2022-12-15T19:30:35.863Z,17.63
2022-12-15T19:33:08.849Z,18.33
2022-12-15T19:35:38.173Z,19.50
2022-12-15T19:38:08.484Z,23.63
2022-12-15T19:40:38.575Z,24.92
2022-12-15T19:43:07.273Z,22.13
2022-12-15T19:45:35.520Z,20.73
2022-12-15T19:48:03.683Z,21.52
2022-12-15T19:50:36.221Z,29.23
2022-12-15T19:53:12.841Z,32.33
2022-12-15T19:55:41.524Z,27.35
2022-12-15T19:58:27.476Z,22.67
2022-12-15T20:00:57.969Z,23.55
2022-12-15T20:03:26.990Z,24.38
2022-12-15T20:05:57.143Z,26.65
2022-12-15T20:08:30.427Z,31.40
2022-12-15T20:10:58.583Z,40.53
2022-12-15T20:13:27.454Z,44.28
2022-12-15T20:15:55.936Z,29.75
2022-12-15T20:18:24.127Z,37.05
2022-12-15T20:20:52.746Z,37.00
2022-12-15T20:23:26.060Z,30.30
2022-12-15T20:25:56.392Z,29.83
2022-12-15T20:28:27.266Z,20.77
2022-12-15T20:30:57.132Z,20.57
2022-12-15T20:33:26.039Z,19.30
2022-12-15T20:35:54.944Z,19.08
2022-12-15T20:38:29.440Z,19.65
2022-12-15T20:40:59.564Z,20.40
2022-12-15T20:43:31.236Z,19.75
2022-12-15T20:46:04.059Z,22.05
2022-12-15T20:48:35.424Z,24.27
2022-12-15T20:51:07.520Z,22.50
2022-12-15T20:53:37.661Z,20.88
2022-12-15T20:56:08.173Z,21.95
2022-12-15T20:58:39.519Z,19.92
2022-12-15T21:01:20.315Z,19.95
2022-12-15T21:03:50.286Z,20.88
2022-12-15T21:06:20.318Z,27.48
2022-12-15T21:08:49.405Z,20.90
2022-12-15T21:11:21.983Z,20.73
2022-12-15T21:13:51.538Z,20.45
2022-12-15T21:16:21.786Z,23.83
2022-12-15T21:19:19.370Z,34.72
2022-12-15T21:21:41.513Z,29.02
2022-12-15T21:24:16.323Z,19.23
2022-12-15T21:26:46.379Z,18.70
2022-12-15T21:29:16.215Z,17.30
2022-12-15T21:31:44.664Z,17.05
2022-12-15T21:34:13.297Z,17.65
2022-12-15T21:36:44.026Z,17.67
2022-12-15T21:39:18.517Z,15.95
2022-12-15T21:41:48.100Z,16.00
2022-12-15T21:44:18.284Z,15.77
2022-12-15T21:46:46.528Z,15.20
2022-12-15T21:49:15.094Z,16.88
2022-12-15T21:51:46.143Z,15.95
2022-12-15T21:54:19.206Z,14.45
2022-12-15T21:56:49.561Z,13.48
2022-12-15T21:59:20.280Z,14.63
2022-12-15T22:01:49.481Z,13.27
2022-12-15T22:04:21.483Z,12.98
2022-12-15T22:06:50.477Z,13.45
2022-12-15T22:09:19.492Z,14.13
2022-12-15T22:11:51.035Z,14.15
2022-12-15T22:14:26.127Z,12.65
2022-12-15T22:16:54.873Z,11.40
2022-12-15T22:19:23.655Z,12.13
2022-12-15T22:21:52.273Z,14.80
2022-12-15T22:24:20.860Z,15.23
2022-12-15T22:26:50.526Z,24.92
2022-12-15T22:29:21.595Z,16.92
2022-12-15T22:31:50.693Z,17.33
2022-12-15T22:34:22.187Z,16.20
2022-12-15T22:36:51.080Z,15.45
2022-12-15T22:39:20.573Z,13.43
2022-12-15T22:41:52.288Z,14.18
2022-12-15T22:44:24.045Z,13.68
2022-12-15T22:46:54.089Z,11.75
2022-12-15T22:49:24.518Z,12.63
2022-12-15T22:51:52.825Z,12.98
2022-12-15T22:54:25.547Z,13.10
2022-12-15T22:56:58.642Z,13.25
2022-12-15T22:59:32.227Z,12.52
2022-12-15T23:02:02.332Z,12.80
2022-12-15T23:04:31.112Z,13.70
2022-12-15T23:07:00.230Z,12.13
2022-12-15T23:09:28.368Z,12.20
2022-12-15T23:11:57.291Z,14.32
2022-12-15T23:14:51.875Z,12.15
2022-12-15T23:17:19.008Z,11.70
2022-12-15T23:19:48.058Z,11.15
2022-12-15T23:22:16.228Z,10.98
2022-12-15T23:24:44.379Z,11.07
2022-12-15T23:27:13.969Z,12.35
2022-12-15T23:29:42.086Z,12.95
2022-12-15T23:32:10.212Z,13.52
2022-12-15T23:34:38.330Z,17.15
2022-12-15T23:37:06.487Z,19.55
2022-12-15T23:39:34.663Z,17.08
2022-12-15T23:42:02.779Z,13.38
2022-12-15T23:44:32.362Z,12.85
2022-12-15T23:47:00.623Z,12.18
2022-12-15T23:49:28.867Z,11.98
2022-12-15T23:51:57.117Z,12.05
2022-12-15T23:54:25.261Z,10.75
2022-12-15T23:56:53.393Z,12.32
2022-12-15T23:59:22.958Z,11.57
